Juripiranga, Brazil
Current Conditions -  °F | °C
As of 11:00 AM on Wednesday 22 Oct 2014 (Local Time) from SBJP Reporting Station
Broken Clouds Broken Clouds  
Wind Chill: 84°   Ceiling: 3000
Heat Index: 86°   Visibility: 6mi
Dew Point: 66°   Wind: 14mph
Humidity: 55%   Direction: 90°E
Pressure: 30"   Gusts: NA
Location:  7.37°S, 35.24°W
Report Text: SBJP 221400Z 09012KT 9999 BKN030 BKN070 29/19 Q1016
Loading
Personal Weather Stations






























Interactive Weather Map
Tropical Storm Tracking
New forecast layout! Learn more

10-Day Weather Forecast

Advertisements
Track Severe Weather on mobile